sensor_id;sensor_type;location;lat;lon;timestamp;P1;durP1;ratioP1;P2;durP2;ratioP2
20709;SDS011;10516;51.518;9.864;2023-06-14T00:00:04;6.20;;;4.18;;
20709;SDS011;10516;51.518;9.864;2023-06-14T00:02:30;6.93;;;3.97;;
20709;SDS011;10516;51.518;9.864;2023-06-14T00:04:56;4.95;;;3.90;;
20709;SDS011;10516;51.518;9.864;2023-06-14T00:07:27;4.38;;;3.83;;
20709;SDS011;10516;51.518;9.864;2023-06-14T00:10:02;6.15;;;4.15;;
20709;SDS011;10516;51.518;9.864;2023-06-14T00:12:29;6.72;;;3.67;;
20709;SDS011;10516;51.518;9.864;2023-06-14T00:14:54;7.25;;;3.58;;
20709;SDS011;10516;51.518;9.864;2023-06-14T00:17:20;4.45;;;3.88;;
20709;SDS011;10516;51.518;9.864;2023-06-14T00:19:45;5.47;;;4.10;;
20709;SDS011;10516;51.518;9.864;2023-06-14T00:22:11;7.05;;;3.75;;
20709;SDS011;10516;51.518;9.864;2023-06-14T00:24:37;4.13;;;3.70;;
20709;SDS011;10516;51.518;9.864;2023-06-14T00:27:02;9.07;;;3.85;;
20709;SDS011;10516;51.518;9.864;2023-06-14T00:29:28;3.38;;;3.08;;
20709;SDS011;10516;51.518;9.864;2023-06-14T00:31:53;4.68;;;3.13;;
20709;SDS011;10516;51.518;9.864;2023-06-14T00:34:18;6.32;;;3.15;;
20709;SDS011;10516;51.518;9.864;2023-06-14T00:36:44;5.97;;;4.30;;
20709;SDS011;10516;51.518;9.864;2023-06-14T00:39:09;5.32;;;3.67;;
20709;SDS011;10516;51.518;9.864;2023-06-14T00:41:35;4.90;;;3.67;;
20709;SDS011;10516;51.518;9.864;2023-06-14T00:44:00;5.40;;;3.38;;
20709;SDS011;10516;51.518;9.864;2023-06-14T00:46:25;7.47;;;3.40;;
20709;SDS011;10516;51.518;9.864;2023-06-14T00:48:51;8.10;;;4.00;;
20709;SDS011;10516;51.518;9.864;2023-06-14T00:51:17;8.43;;;3.63;;
20709;SDS011;10516;51.518;9.864;2023-06-14T00:53:42;6.85;;;3.55;;
20709;SDS011;10516;51.518;9.864;2023-06-14T00:56:12;4.88;;;3.88;;
20709;SDS011;10516;51.518;9.864;2023-06-14T00:58:38;7.68;;;3.53;;
20709;SDS011;10516;51.518;9.864;2023-06-14T01:01:04;4.18;;;3.22;;
20709;SDS011;10516;51.518;9.864;2023-06-14T01:03:30;4.43;;;3.60;;
20709;SDS011;10516;51.518;9.864;2023-06-14T01:06:03;10.65;;;4.18;;
20709;SDS011;10516;51.518;9.864;2023-06-14T01:11:18;4.72;;;3.55;;
20709;SDS011;10516;51.518;9.864;2023-06-14T01:13:52;6.70;;;3.80;;
20709;SDS011;10516;51.518;9.864;2023-06-14T01:16:18;5.10;;;3.33;;
20709;SDS011;10516;51.518;9.864;2023-06-14T01:18:45;5.72;;;3.20;;
20709;SDS011;10516;51.518;9.864;2023-06-14T01:21:19;11.55;;;3.67;;
20709;SDS011;10516;51.518;9.864;2023-06-14T01:23:46;6.50;;;3.60;;
20709;SDS011;10516;51.518;9.864;2023-06-14T01:26:17;4.10;;;3.30;;
20709;SDS011;10516;51.518;9.864;2023-06-14T01:28:44;3.35;;;3.05;;
20709;SDS011;10516;51.518;9.864;2023-06-14T01:31:15;6.90;;;3.38;;
20709;SDS011;10516;51.518;9.864;2023-06-14T01:33:46;6.68;;;3.60;;
20709;SDS011;10516;51.518;9.864;2023-06-14T01:36:14;4.95;;;4.10;;
20709;SDS011;10516;51.518;9.864;2023-06-14T01:38:40;4.00;;;3.30;;
20709;SDS011;10516;51.518;9.864;2023-06-14T01:41:08;5.40;;;4.00;;
20709;SDS011;10516;51.518;9.864;2023-06-14T01:43:34;4.93;;;3.97;;
20709;SDS011;10516;51.518;9.864;2023-06-14T01:46:00;9.70;;;4.07;;
20709;SDS011;10516;51.518;9.864;2023-06-14T01:48:28;6.07;;;3.72;;
20709;SDS011;10516;51.518;9.864;2023-06-14T01:50:53;9.93;;;4.28;;
20709;SDS011;10516;51.518;9.864;2023-06-14T01:53:18;7.00;;;3.83;;
20709;SDS011;10516;51.518;9.864;2023-06-14T01:55:44;8.18;;;4.50;;
20709;SDS011;10516;51.518;9.864;2023-06-14T01:58:13;8.30;;;3.60;;
20709;SDS011;10516;51.518;9.864;2023-06-14T02:00:41;4.72;;;4.05;;
20709;SDS011;10516;51.518;9.864;2023-06-14T02:03:08;6.60;;;4.10;;
20709;SDS011;10516;51.518;9.864;2023-06-14T02:05:33;6.15;;;3.47;;
20709;SDS011;10516;51.518;9.864;2023-06-14T02:07:59;4.93;;;3.35;;
20709;SDS011;10516;51.518;9.864;2023-06-14T02:10:25;8.88;;;3.47;;
20709;SDS011;10516;51.518;9.864;2023-06-14T02:12:50;4.95;;;3.75;;
20709;SDS011;10516;51.518;9.864;2023-06-14T02:15:16;6.32;;;3.47;;
20709;SDS011;10516;51.518;9.864;2023-06-14T02:17:45;5.25;;;3.78;;
20709;SDS011;10516;51.518;9.864;2023-06-14T02:20:12;4.95;;;3.20;;
20709;SDS011;10516;51.518;9.864;2023-06-14T02:22:38;4.88;;;3.88;;
20709;SDS011;10516;51.518;9.864;2023-06-14T02:25:03;5.45;;;3.58;;
20709;SDS011;10516;51.518;9.864;2023-06-14T02:27:29;7.18;;;3.55;;
20709;SDS011;10516;51.518;9.864;2023-06-14T02:29:54;4.97;;;3.33;;
20709;SDS011;10516;51.518;9.864;2023-06-14T02:32:20;4.43;;;3.03;;
20709;SDS011;10516;51.518;9.864;2023-06-14T02:34:45;7.13;;;3.10;;
20709;SDS011;10516;51.518;9.864;2023-06-14T02:37:14;4.47;;;3.35;;
20709;SDS011;10516;51.518;9.864;2023-06-14T02:39:40;3.45;;;3.15;;
20709;SDS011;10516;51.518;9.864;2023-06-14T02:42:06;6.57;;;3.70;;
20709;SDS011;10516;51.518;9.864;2023-06-14T02:44:31;6.25;;;3.10;;
20709;SDS011;10516;51.518;9.864;2023-06-14T02:46:57;5.22;;;3.50;;
20709;SDS011;10516;51.518;9.864;2023-06-14T02:49:23;6.25;;;3.50;;
20709;SDS011;10516;51.518;9.864;2023-06-14T02:51:49;4.63;;;3.03;;
20709;SDS011;10516;51.518;9.864;2023-06-14T02:54:15;5.95;;;3.58;;
20709;SDS011;10516;51.518;9.864;2023-06-14T02:56:40;5.25;;;3.30;;
20709;SDS011;10516;51.518;9.864;2023-06-14T02:59:06;6.88;;;3.50;;
20709;SDS011;10516;51.518;9.864;2023-06-14T03:01:35;4.30;;;3.40;;
20709;SDS011;10516;51.518;9.864;2023-06-14T03:04:03;3.15;;;2.83;;
20709;SDS011;10516;51.518;9.864;2023-06-14T03:06:29;3.22;;;2.92;;
20709;SDS011;10516;51.518;9.864;2023-06-14T03:08:55;7.15;;;3.40;;
20709;SDS011;10516;51.518;9.864;2023-06-14T03:11:25;4.07;;;3.20;;
20709;SDS011;10516;51.518;9.864;2023-06-14T03:13:51;3.58;;;3.28;;
20709;SDS011;10516;51.518;9.864;2023-06-14T03:16:17;3.42;;;3.13;;
20709;SDS011;10516;51.518;9.864;2023-06-14T03:18:45;7.80;;;3.30;;
20709;SDS011;10516;51.518;9.864;2023-06-14T03:21:10;5.80;;;3.22;;
20709;SDS011;10516;51.518;9.864;2023-06-14T03:23:36;8.02;;;3.83;;
20709;SDS011;10516;51.518;9.864;2023-06-14T03:26:02;5.18;;;3.92;;
20709;SDS011;10516;51.518;9.864;2023-06-14T03:28:27;5.95;;;3.47;;
20709;SDS011;10516;51.518;9.864;2023-06-14T03:30:52;5.40;;;3.72;;
20709;SDS011;10516;51.518;9.864;2023-06-14T03:33:18;7.50;;;4.47;;
20709;SDS011;10516;51.518;9.864;2023-06-14T03:35:44;7.03;;;3.60;;
20709;SDS011;10516;51.518;9.864;2023-06-14T03:38:09;8.18;;;3.42;;
20709;SDS011;10516;51.518;9.864;2023-06-14T03:40:35;5.65;;;3.63;;
20709;SDS011;10516;51.518;9.864;2023-06-14T03:43:00;6.53;;;3.67;;
20709;SDS011;10516;51.518;9.864;2023-06-14T03:45:26;4.28;;;3.40;;
20709;SDS011;10516;51.518;9.864;2023-06-14T03:47:51;5.20;;;3.75;;
20709;SDS011;10516;51.518;9.864;2023-06-14T03:50:17;4.85;;;2.95;;
20709;SDS011;10516;51.518;9.864;2023-06-14T03:52:43;5.68;;;3.33;;
20709;SDS011;10516;51.518;9.864;2023-06-14T03:55:09;4.43;;;3.50;;
20709;SDS011;10516;51.518;9.864;2023-06-14T03:57:35;6.93;;;3.60;;
20709;SDS011;10516;51.518;9.864;2023-06-14T04:00:00;4.63;;;3.28;;
20709;SDS011;10516;51.518;9.864;2023-06-14T04:02:25;4.22;;;3.13;;
20709;SDS011;10516;51.518;9.864;2023-06-14T04:04:53;5.75;;;3.45;;
20709;SDS011;10516;51.518;9.864;2023-06-14T04:07:19;4.85;;;3.55;;
20709;SDS011;10516;51.518;9.864;2023-06-14T04:09:45;8.27;;;3.47;;
20709;SDS011;10516;51.518;9.864;2023-06-14T04:12:11;4.25;;;3.35;;
20709;SDS011;10516;51.518;9.864;2023-06-14T04:14:37;6.38;;;3.78;;
20709;SDS011;10516;51.518;9.864;2023-06-14T04:17:03;6.28;;;3.15;;
20709;SDS011;10516;51.518;9.864;2023-06-14T04:19:28;8.98;;;3.72;;
20709;SDS011;10516;51.518;9.864;2023-06-14T04:21:54;6.25;;;3.75;;
20709;SDS011;10516;51.518;9.864;2023-06-14T04:24:19;7.80;;;3.75;;
20709;SDS011;10516;51.518;9.864;2023-06-14T04:26:45;3.78;;;3.40;;
20709;SDS011;10516;51.518;9.864;2023-06-14T04:29:12;5.65;;;3.40;;
20709;SDS011;10516;51.518;9.864;2023-06-14T04:31:42;5.45;;;3.55;;
20709;SDS011;10516;51.518;9.864;2023-06-14T04:34:08;3.30;;;3.00;;
20709;SDS011;10516;51.518;9.864;2023-06-14T04:36:33;4.95;;;3.35;;
20709;SDS011;10516;51.518;9.864;2023-06-14T04:39:00;9.25;;;3.95;;
20709;SDS011;10516;51.518;9.864;2023-06-14T04:41:28;12.13;;;3.47;;
20709;SDS011;10516;51.518;9.864;2023-06-14T04:43:59;7.35;;;3.70;;
20709;SDS011;10516;51.518;9.864;2023-06-14T04:46:29;7.40;;;4.10;;
20709;SDS011;10516;51.518;9.864;2023-06-14T04:48:55;5.10;;;3.33;;
20709;SDS011;10516;51.518;9.864;2023-06-14T04:51:21;6.75;;;3.70;;
20709;SDS011;10516;51.518;9.864;2023-06-14T04:53:58;6.63;;;3.13;;
20709;SDS011;10516;51.518;9.864;2023-06-14T04:56:26;5.93;;;3.53;;
20709;SDS011;10516;51.518;9.864;2023-06-14T04:58:51;6.40;;;3.80;;
20709;SDS011;10516;51.518;9.864;2023-06-14T05:01:18;5.05;;;3.30;;
20709;SDS011;10516;51.518;9.864;2023-06-14T05:03:44;4.80;;;3.22;;
20709;SDS011;10516;51.518;9.864;2023-06-14T05:06:10;3.28;;;2.80;;
20709;SDS011;10516;51.518;9.864;2023-06-14T05:08:37;4.35;;;3.42;;
20709;SDS011;10516;51.518;9.864;2023-06-14T05:11:02;5.63;;;3.58;;
20709;SDS011;10516;51.518;9.864;2023-06-14T05:13:28;6.15;;;4.22;;
20709;SDS011;10516;51.518;9.864;2023-06-14T05:15:53;9.48;;;3.50;;
20709;SDS011;10516;51.518;9.864;2023-06-14T05:18:19;5.07;;;3.47;;
20709;SDS011;10516;51.518;9.864;2023-06-14T05:20:45;3.53;;;3.17;;
20709;SDS011;10516;51.518;9.864;2023-06-14T05:23:11;6.35;;;4.20;;
20709;SDS011;10516;51.518;9.864;2023-06-14T05:25:41;5.50;;;3.55;;
20709;SDS011;10516;51.518;9.864;2023-06-14T05:28:07;4.78;;;3.53;;
20709;SDS011;10516;51.518;9.864;2023-06-14T05:30:33;5.25;;;3.33;;
20709;SDS011;10516;51.518;9.864;2023-06-14T05:32:58;5.55;;;3.45;;
20709;SDS011;10516;51.518;9.864;2023-06-14T05:35:24;6.03;;;3.22;;
20709;SDS011;10516;51.518;9.864;2023-06-14T05:37:51;8.10;;;4.45;;
20709;SDS011;10516;51.518;9.864;2023-06-14T05:40:17;5.93;;;4.18;;
20709;SDS011;10516;51.518;9.864;2023-06-14T05:42:42;3.58;;;3.28;;
20709;SDS011;10516;51.518;9.864;2023-06-14T05:45:08;5.60;;;3.97;;
20709;SDS011;10516;51.518;9.864;2023-06-14T05:47:34;6.60;;;3.53;;
20709;SDS011;10516;51.518;9.864;2023-06-14T05:49:59;4.18;;;3.55;;
20709;SDS011;10516;51.518;9.864;2023-06-14T05:52:25;5.78;;;3.13;;
20709;SDS011;10516;51.518;9.864;2023-06-14T05:54:51;6.57;;;3.45;;
20709;SDS011;10516;51.518;9.864;2023-06-14T05:57:16;8.38;;;5.25;;
20709;SDS011;10516;51.518;9.864;2023-06-14T05:59:45;7.93;;;4.15;;
20709;SDS011;10516;51.518;9.864;2023-06-14T06:02:10;7.75;;;3.92;;
20709;SDS011;10516;51.518;9.864;2023-06-14T06:04:36;5.00;;;3.65;;
20709;SDS011;10516;51.518;9.864;2023-06-14T06:07:01;4.07;;;3.13;;
20709;SDS011;10516;51.518;9.864;2023-06-14T06:09:27;3.58;;;3.28;;
20709;SDS011;10516;51.518;9.864;2023-06-14T06:11:53;7.00;;;4.30;;
20709;SDS011;10516;51.518;9.864;2023-06-14T06:14:21;4.93;;;4.00;;
20709;SDS011;10516;51.518;9.864;2023-06-14T06:16:46;9.85;;;4.38;;
20709;SDS011;10516;51.518;9.864;2023-06-14T06:19:12;6.20;;;4.90;;
20709;SDS011;10516;51.518;9.864;2023-06-14T06:21:37;9.10;;;4.35;;
20709;SDS011;10516;51.518;9.864;2023-06-14T06:24:04;5.97;;;3.97;;
20709;SDS011;10516;51.518;9.864;2023-06-14T06:26:30;6.45;;;4.10;;
20709;SDS011;10516;51.518;9.864;2023-06-14T06:28:56;8.10;;;3.90;;
20709;SDS011;10516;51.518;9.864;2023-06-14T06:31:22;7.32;;;4.45;;
20709;SDS011;10516;51.518;9.864;2023-06-14T06:33:47;4.30;;;3.90;;
20709;SDS011;10516;51.518;9.864;2023-06-14T06:36:13;8.40;;;5.47;;
20709;SDS011;10516;51.518;9.864;2023-06-14T06:38:38;7.88;;;4.15;;
20709;SDS011;10516;51.518;9.864;2023-06-14T06:41:03;6.90;;;5.13;;
20709;SDS011;10516;51.518;9.864;2023-06-14T06:43:29;8.75;;;4.80;;
20709;SDS011;10516;51.518;9.864;2023-06-14T06:45:54;5.72;;;4.47;;
20709;SDS011;10516;51.518;9.864;2023-06-14T06:48:20;7.35;;;5.18;;
20709;SDS011;10516;51.518;9.864;2023-06-14T06:50:45;8.00;;;5.38;;
20709;SDS011;10516;51.518;9.864;2023-06-14T06:53:10;6.25;;;4.82;;
20709;SDS011;10516;51.518;9.864;2023-06-14T06:55:36;7.80;;;5.22;;
20709;SDS011;10516;51.518;9.864;2023-06-14T06:58:01;6.05;;;4.75;;
20709;SDS011;10516;51.518;9.864;2023-06-14T07:00:29;6.55;;;5.80;;
20709;SDS011;10516;51.518;9.864;2023-06-14T07:02:55;5.57;;;5.05;;
20709;SDS011;10516;51.518;9.864;2023-06-14T07:05:21;6.15;;;4.55;;
20709;SDS011;10516;51.518;9.864;2023-06-14T07:07:47;6.25;;;4.72;;
20709;SDS011;10516;51.518;9.864;2023-06-14T07:10:12;7.47;;;5.00;;
20709;SDS011;10516;51.518;9.864;2023-06-14T07:12:38;8.95;;;5.70;;
20709;SDS011;10516;51.518;9.864;2023-06-14T07:15:05;8.85;;;5.18;;
20709;SDS011;10516;51.518;9.864;2023-06-14T07:17:32;7.15;;;5.00;;
20709;SDS011;10516;51.518;9.864;2023-06-14T07:19:58;9.02;;;5.15;;
20709;SDS011;10516;51.518;9.864;2023-06-14T07:22:24;6.65;;;4.63;;
20709;SDS011;10516;51.518;9.864;2023-06-14T07:24:49;5.78;;;4.22;;
20709;SDS011;10516;51.518;9.864;2023-06-14T07:27:15;6.32;;;5.53;;
20709;SDS011;10516;51.518;9.864;2023-06-14T07:29:40;5.10;;;4.13;;
20709;SDS011;10516;51.518;9.864;2023-06-14T07:32:06;7.28;;;4.55;;
20709;SDS011;10516;51.518;9.864;2023-06-14T07:34:31;5.38;;;4.47;;
20709;SDS011;10516;51.518;9.864;2023-06-14T07:36:57;8.30;;;5.03;;
20709;SDS011;10516;51.518;9.864;2023-06-14T07:39:22;5.15;;;4.65;;
20709;SDS011;10516;51.518;9.864;2023-06-14T07:41:48;7.05;;;4.78;;
20709;SDS011;10516;51.518;9.864;2023-06-14T07:44:14;5.78;;;3.33;;
20709;SDS011;10516;51.518;9.864;2023-06-14T07:46:39;12.50;;;5.18;;
20709;SDS011;10516;51.518;9.864;2023-06-14T07:49:05;6.68;;;5.13;;
20709;SDS011;10516;51.518;9.864;2023-06-14T07:51:30;7.20;;;5.00;;
20709;SDS011;10516;51.518;9.864;2023-06-14T07:53:56;7.63;;;5.30;;
20709;SDS011;10516;51.518;9.864;2023-06-14T07:56:21;5.05;;;3.67;;
20709;SDS011;10516;51.518;9.864;2023-06-14T07:58:48;6.05;;;4.25;;
20709;SDS011;10516;51.518;9.864;2023-06-14T08:01:13;6.47;;;4.93;;
20709;SDS011;10516;51.518;9.864;2023-06-14T08:03:40;6.78;;;4.20;;
20709;SDS011;10516;51.518;9.864;2023-06-14T08:06:06;7.38;;;4.78;;
20709;SDS011;10516;51.518;9.864;2023-06-14T08:08:32;6.65;;;4.75;;
20709;SDS011;10516;51.518;9.864;2023-06-14T08:10:57;6.13;;;4.53;;
20709;SDS011;10516;51.518;9.864;2023-06-14T08:13:23;8.27;;;4.47;;
20709;SDS011;10516;51.518;9.864;2023-06-14T08:15:48;6.07;;;3.70;;
20709;SDS011;10516;51.518;9.864;2023-06-14T08:18:14;4.22;;;3.83;;
20709;SDS011;10516;51.518;9.864;2023-06-14T08:20:39;8.13;;;4.53;;
20709;SDS011;10516;51.518;9.864;2023-06-14T08:23:05;6.38;;;3.97;;
20709;SDS011;10516;51.518;9.864;2023-06-14T08:25:30;10.40;;;4.35;;
20709;SDS011;10516;51.518;9.864;2023-06-14T08:27:56;5.45;;;3.95;;
20709;SDS011;10516;51.518;9.864;2023-06-14T08:30:21;7.90;;;4.07;;
20709;SDS011;10516;51.518;9.864;2023-06-14T08:32:47;4.80;;;4.35;;
20709;SDS011;10516;51.518;9.864;2023-06-14T08:35:12;7.85;;;3.90;;
20709;SDS011;10516;51.518;9.864;2023-06-14T08:37:39;7.72;;;4.03;;
20709;SDS011;10516;51.518;9.864;2023-06-14T08:40:07;5.18;;;4.68;;
20709;SDS011;10516;51.518;9.864;2023-06-14T08:42:44;4.72;;;4.20;;
20709;SDS011;10516;51.518;9.864;2023-06-14T08:45:11;8.05;;;4.35;;
20709;SDS011;10516;51.518;9.864;2023-06-14T08:47:36;8.88;;;4.38;;
20709;SDS011;10516;51.518;9.864;2023-06-14T08:50:02;6.22;;;3.42;;
20709;SDS011;10516;51.518;9.864;2023-06-14T08:52:29;7.18;;;4.07;;
20709;SDS011;10516;51.518;9.864;2023-06-14T08:55:05;6.68;;;3.88;;
20709;SDS011;10516;51.518;9.864;2023-06-14T08:57:31;4.72;;;3.88;;
20709;SDS011;10516;51.518;9.864;2023-06-14T08:59:58;8.20;;;3.80;;
20709;SDS011;10516;51.518;9.864;2023-06-14T09:02:26;6.70;;;4.10;;
20709;SDS011;10516;51.518;9.864;2023-06-14T09:04:51;4.13;;;3.72;;
20709;SDS011;10516;51.518;9.864;2023-06-14T09:07:17;5.95;;;4.25;;
20709;SDS011;10516;51.518;9.864;2023-06-14T09:09:43;4.72;;;4.20;;
20709;SDS011;10516;51.518;9.864;2023-06-14T09:12:10;8.77;;;4.43;;
20709;SDS011;10516;51.518;9.864;2023-06-14T09:14:36;5.03;;;3.63;;
20709;SDS011;10516;51.518;9.864;2023-06-14T09:17:03;4.68;;;3.85;;
20709;SDS011;10516;51.518;9.864;2023-06-14T09:19:29;6.55;;;4.05;;
20709;SDS011;10516;51.518;9.864;2023-06-14T09:21:54;6.57;;;3.28;;
20709;SDS011;10516;51.518;9.864;2023-06-14T09:24:20;8.77;;;3.97;;
20709;SDS011;10516;51.518;9.864;2023-06-14T09:26:52;12.77;;;4.28;;
20709;SDS011;10516;51.518;9.864;2023-06-14T09:29:18;6.43;;;3.28;;
20709;SDS011;10516;51.518;9.864;2023-06-14T09:31:46;7.05;;;3.72;;
20709;SDS011;10516;51.518;9.864;2023-06-14T09:34:12;5.32;;;3.08;;
20709;SDS011;10516;51.518;9.864;2023-06-14T09:36:38;5.80;;;4.45;;
20709;SDS011;10516;51.518;9.864;2023-06-14T09:39:07;9.93;;;4.13;;
20709;SDS011;10516;51.518;9.864;2023-06-14T09:41:34;6.68;;;4.25;;
20709;SDS011;10516;51.518;9.864;2023-06-14T09:44:05;6.20;;;4.28;;
20709;SDS011;10516;51.518;9.864;2023-06-14T09:46:32;5.88;;;3.88;;
20709;SDS011;10516;51.518;9.864;2023-06-14T09:48:58;7.85;;;4.30;;
20709;SDS011;10516;51.518;9.864;2023-06-14T09:51:25;4.50;;;4.10;;
20709;SDS011;10516;51.518;9.864;2023-06-14T09:53:51;4.68;;;4.15;;
20709;SDS011;10516;51.518;9.864;2023-06-14T09:56:29;5.15;;;3.03;;
20709;SDS011;10516;51.518;9.864;2023-06-14T09:58:59;4.30;;;3.90;;
20709;SDS011;10516;51.518;9.864;2023-06-14T10:01:25;7.60;;;4.43;;
20709;SDS011;10516;51.518;9.864;2023-06-14T10:04:15;8.55;;;3.67;;
20709;SDS011;10516;51.518;9.864;2023-06-14T10:06:41;5.85;;;3.88;;
20709;SDS011;10516;51.518;9.864;2023-06-14T10:09:11;10.48;;;4.00;;
20709;SDS011;10516;51.518;9.864;2023-06-14T10:11:37;4.20;;;3.80;;
20709;SDS011;10516;51.518;9.864;2023-06-14T10:14:08;7.18;;;3.83;;
20709;SDS011;10516;51.518;9.864;2023-06-14T10:21:57;5.50;;;3.40;;
20709;SDS011;10516;51.518;9.864;2023-06-14T10:24:30;5.68;;;3.80;;
20709;SDS011;10516;51.518;9.864;2023-06-14T10:26:58;8.23;;;4.13;;
20709;SDS011;10516;51.518;9.864;2023-06-14T10:29:26;4.43;;;4.00;;
20709;SDS011;10516;51.518;9.864;2023-06-14T10:31:58;4.35;;;3.53;;
20709;SDS011;10516;51.518;9.864;2023-06-14T10:34:34;6.07;;;3.45;;
20709;SDS011;10516;51.518;9.864;2023-06-14T10:37:04;6.78;;;3.83;;
20709;SDS011;10516;51.518;9.864;2023-06-14T10:39:37;6.68;;;4.28;;
20709;SDS011;10516;51.518;9.864;2023-06-14T10:42:10;9.45;;;3.53;;
20709;SDS011;10516;51.518;9.864;2023-06-14T10:44:41;11.52;;;4.07;;
20709;SDS011;10516;51.518;9.864;2023-06-14T10:49:50;6.03;;;3.63;;
20709;SDS011;10516;51.518;9.864;2023-06-14T10:52:19;6.65;;;4.07;;
20709;SDS011;10516;51.518;9.864;2023-06-14T10:55:06;4.97;;;3.20;;
20709;SDS011;10516;51.518;9.864;2023-06-14T10:57:53;4.43;;;3.15;;
20709;SDS011;10516;51.518;9.864;2023-06-14T11:00:24;5.95;;;3.83;;
20709;SDS011;10516;51.518;9.864;2023-06-14T11:11:33;7.25;;;4.07;;
20709;SDS011;10516;51.518;9.864;2023-06-14T11:14:01;7.43;;;3.70;;
20709;SDS011;10516;51.518;9.864;2023-06-14T11:16:27;7.32;;;3.40;;
20709;SDS011;10516;51.518;9.864;2023-06-14T11:18:54;5.00;;;4.20;;
20709;SDS011;10516;51.518;9.864;2023-06-14T11:21:19;4.65;;;3.90;;
20709;SDS011;10516;51.518;9.864;2023-06-14T11:23:49;3.70;;;3.33;;
20709;SDS011;10516;51.518;9.864;2023-06-14T11:26:15;5.30;;;2.95;;
20709;SDS011;10516;51.518;9.864;2023-06-14T11:28:41;3.75;;;3.38;;
20709;SDS011;10516;51.518;9.864;2023-06-14T11:31:06;3.90;;;3.60;;
20709;SDS011;10516;51.518;9.864;2023-06-14T11:33:33;4.22;;;3.53;;
20709;SDS011;10516;51.518;9.864;2023-06-14T11:36:01;4.57;;;3.50;;
20709;SDS011;10516;51.518;9.864;2023-06-14T11:38:29;5.57;;;3.70;;
20709;SDS011;10516;51.518;9.864;2023-06-14T11:40:58;6.18;;;3.78;;
20709;SDS011;10516;51.518;9.864;2023-06-14T11:43:24;6.97;;;3.60;;
20709;SDS011;10516;51.518;9.864;2023-06-14T11:45:50;6.40;;;3.53;;
20709;SDS011;10516;51.518;9.864;2023-06-14T11:48:16;4.72;;;3.13;;
20709;SDS011;10516;51.518;9.864;2023-06-14T11:50:41;4.03;;;2.90;;
20709;SDS011;10516;51.518;9.864;2023-06-14T11:53:07;3.40;;;2.90;;
20709;SDS011;10516;51.518;9.864;2023-06-14T11:55:37;9.20;;;3.60;;
20709;SDS011;10516;51.518;9.864;2023-06-14T11:58:04;2.78;;;2.58;;
20709;SDS011;10516;51.518;9.864;2023-06-14T12:00:30;3.13;;;2.53;;
20709;SDS011;10516;51.518;9.864;2023-06-14T12:02:56;5.50;;;3.30;;
20709;SDS011;10516;51.518;9.864;2023-06-14T12:05:22;4.32;;;3.10;;
20709;SDS011;10516;51.518;9.864;2023-06-14T12:07:48;6.72;;;2.90;;
20709;SDS011;10516;51.518;9.864;2023-06-14T12:10:15;2.80;;;2.60;;
20709;SDS011;10516;51.518;9.864;2023-06-14T12:12:41;4.68;;;2.55;;
20709;SDS011;10516;51.518;9.864;2023-06-14T12:15:07;4.60;;;2.90;;
20709;SDS011;10516;51.518;9.864;2023-06-14T12:17:34;4.93;;;3.10;;
20709;SDS011;10516;51.518;9.864;2023-06-14T12:20:11;5.32;;;2.88;;
20709;SDS011;10516;51.518;9.864;2023-06-14T12:22:55;3.10;;;2.80;;
20709;SDS011;10516;51.518;9.864;2023-06-14T12:28:07;3.35;;;3.05;;
20709;SDS011;10516;51.518;9.864;2023-06-14T12:30:34;3.30;;;3.00;;
20709;SDS011;10516;51.518;9.864;2023-06-14T12:33:01;4.47;;;2.67;;
20709;SDS011;10516;51.518;9.864;2023-06-14T12:35:28;2.78;;;2.58;;
20709;SDS011;10516;51.518;9.864;2023-06-14T12:37:53;3.70;;;2.63;;
20709;SDS011;10516;51.518;9.864;2023-06-14T12:40:19;3.88;;;3.10;;
20709;SDS011;10516;51.518;9.864;2023-06-14T12:42:44;5.05;;;2.38;;
20709;SDS011;10516;51.518;9.864;2023-06-14T12:45:12;2.97;;;2.67;;
20709;SDS011;10516;51.518;9.864;2023-06-14T12:47:37;12.23;;;2.85;;
20709;SDS011;10516;51.518;9.864;2023-06-14T12:50:03;3.55;;;2.30;;
20709;SDS011;10516;51.518;9.864;2023-06-14T12:52:29;4.93;;;2.80;;
20709;SDS011;10516;51.518;9.864;2023-06-14T12:54:55;3.00;;;2.78;;
20709;SDS011;10516;51.518;9.864;2023-06-14T12:57:20;4.55;;;2.75;;
20709;SDS011;10516;51.518;9.864;2023-06-14T12:59:46;6.35;;;3.13;;
20709;SDS011;10516;51.518;9.864;2023-06-14T13:02:18;3.00;;;2.60;;
20709;SDS011;10516;51.518;9.864;2023-06-14T13:04:47;2.83;;;2.42;;
20709;SDS011;10516;51.518;9.864;2023-06-14T13:07:12;5.82;;;2.67;;
20709;SDS011;10516;51.518;9.864;2023-06-14T13:09:39;3.17;;;2.55;;
20709;SDS011;10516;51.518;9.864;2023-06-14T13:12:05;2.72;;;2.53;;
20709;SDS011;10516;51.518;9.864;2023-06-14T13:14:31;5.25;;;2.30;;
20709;SDS011;10516;51.518;9.864;2023-06-14T13:16:57;4.05;;;2.38;;
20709;SDS011;10516;51.518;9.864;2023-06-14T13:19:22;5.57;;;2.47;;
20709;SDS011;10516;51.518;9.864;2023-06-14T13:21:48;3.95;;;2.95;;
20709;SDS011;10516;51.518;9.864;2023-06-14T13:24:13;2.50;;;2.30;;
20709;SDS011;10516;51.518;9.864;2023-06-14T13:26:39;2.90;;;2.60;;
20709;SDS011;10516;51.518;9.864;2023-06-14T13:29:05;3.33;;;2.63;;
20709;SDS011;10516;51.518;9.864;2023-06-14T13:31:30;6.05;;;2.90;;
20709;SDS011;10516;51.518;9.864;2023-06-14T13:33:55;6.05;;;2.53;;
20709;SDS011;10516;51.518;9.864;2023-06-14T13:36:21;5.00;;;2.72;;
20709;SDS011;10516;51.518;9.864;2023-06-14T13:38:47;5.35;;;2.47;;
20709;SDS011;10516;51.518;9.864;2023-06-14T13:41:12;2.58;;;2.05;;
20709;SDS011;10516;51.518;9.864;2023-06-14T13:43:37;9.10;;;2.72;;
20709;SDS011;10516;51.518;9.864;2023-06-14T13:46:03;9.60;;;2.97;;
20709;SDS011;10516;51.518;9.864;2023-06-14T13:48:28;4.90;;;2.67;;
20709;SDS011;10516;51.518;9.864;2023-06-14T13:50:54;3.33;;;2.78;;
20709;SDS011;10516;51.518;9.864;2023-06-14T13:53:19;2.78;;;2.30;;
20709;SDS011;10516;51.518;9.864;2023-06-14T13:55:45;4.70;;;2.85;;
20709;SDS011;10516;51.518;9.864;2023-06-14T13:58:10;4.65;;;2.63;;
20709;SDS011;10516;51.518;9.864;2023-06-14T14:00:35;16.30;;;3.13;;
20709;SDS011;10516;51.518;9.864;2023-06-14T14:03:05;2.25;;;2.05;;
20709;SDS011;10516;51.518;9.864;2023-06-14T14:05:31;5.88;;;2.58;;
20709;SDS011;10516;51.518;9.864;2023-06-14T14:07:56;2.92;;;2.22;;
20709;SDS011;10516;51.518;9.864;2023-06-14T14:10:22;4.45;;;2.35;;
20709;SDS011;10516;51.518;9.864;2023-06-14T14:12:49;4.72;;;2.40;;
20709;SDS011;10516;51.518;9.864;2023-06-14T14:15:15;3.28;;;2.38;;
20709;SDS011;10516;51.518;9.864;2023-06-14T14:17:41;2.90;;;2.60;;
20709;SDS011;10516;51.518;9.864;2023-06-14T14:20:06;3.47;;;2.60;;
20709;SDS011;10516;51.518;9.864;2023-06-14T14:22:32;7.38;;;2.22;;
20709;SDS011;10516;51.518;9.864;2023-06-14T14:24:58;4.50;;;2.38;;
20709;SDS011;10516;51.518;9.864;2023-06-14T14:27:23;6.10;;;2.72;;
20709;SDS011;10516;51.518;9.864;2023-06-14T14:29:48;3.05;;;2.60;;
20709;SDS011;10516;51.518;9.864;2023-06-14T14:32:14;3.50;;;2.38;;
20709;SDS011;10516;51.518;9.864;2023-06-14T14:34:40;5.40;;;2.63;;
20709;SDS011;10516;51.518;9.864;2023-06-14T14:37:05;3.20;;;2.83;;
20709;SDS011;10516;51.518;9.864;2023-06-14T14:39:31;3.58;;;2.30;;
20709;SDS011;10516;51.518;9.864;2023-06-14T14:41:56;2.53;;;2.33;;
20709;SDS011;10516;51.518;9.864;2023-06-14T14:44:21;4.25;;;2.33;;
20709;SDS011;10516;51.518;9.864;2023-06-14T14:46:47;4.72;;;2.40;;
20709;SDS011;10516;51.518;9.864;2023-06-14T14:49:12;4.85;;;2.80;;
20709;SDS011;10516;51.518;9.864;2023-06-14T14:51:38;2.72;;;2.33;;
20709;SDS011;10516;51.518;9.864;2023-06-14T14:54:04;3.28;;;2.72;;
20709;SDS011;10516;51.518;9.864;2023-06-14T14:56:30;4.13;;;3.20;;
20709;SDS011;10516;51.518;9.864;2023-06-14T14:58:56;5.65;;;2.85;;
20709;SDS011;10516;51.518;9.864;2023-06-14T15:01:21;2.80;;;2.60;;
20709;SDS011;10516;51.518;9.864;2023-06-14T15:03:47;6.00;;;2.67;;
20709;SDS011;10516;51.518;9.864;2023-06-14T15:06:12;3.72;;;2.67;;